sensor_id;sensor_type;location;lat;lon;timestamp;P1;durP1;ratioP1;P2;durP2;ratioP2
16593;SDS011;8410;52.532;13.336;2022-07-03T00:00:54;14.05;;;12.70;;
16593;SDS011;8410;52.532;13.336;2022-07-03T00:03:22;15.15;;;13.55;;
16593;SDS011;8410;52.532;13.336;2022-07-03T00:05:50;17.80;;;16.17;;
16593;SDS011;8410;52.532;13.336;2022-07-03T00:08:18;18.90;;;17.05;;
16593;SDS011;8410;52.532;13.336;2022-07-03T00:10:45;6.65;;;5.88;;
16593;SDS011;8410;52.532;13.336;2022-07-03T00:13:15;9.60;;;8.57;;
16593;SDS011;8410;52.532;13.336;2022-07-03T00:15:43;13.98;;;12.68;;
16593;SDS011;8410;52.532;13.336;2022-07-03T00:18:11;5.45;;;4.95;;
16593;SDS011;8410;52.532;13.336;2022-07-03T00:20:40;4.43;;;4.03;;
16593;SDS011;8410;52.532;13.336;2022-07-03T00:23:15;8.30;;;7.57;;
16593;SDS011;8410;52.532;13.336;2022-07-03T00:25:45;13.38;;;12.23;;
16593;SDS011;8410;52.532;13.336;2022-07-03T00:28:17;13.23;;;11.93;;
16593;SDS011;8410;52.532;13.336;2022-07-03T00:30:47;4.43;;;3.78;;
16593;SDS011;8410;52.532;13.336;2022-07-03T00:33:17;5.15;;;3.85;;
16593;SDS011;8410;52.532;13.336;2022-07-03T00:35:47;4.75;;;4.35;;
16593;SDS011;8410;52.532;13.336;2022-07-03T00:38:20;4.07;;;3.55;;
16593;SDS011;8410;52.532;13.336;2022-07-03T00:40:48;6.78;;;6.13;;
16593;SDS011;8410;52.532;13.336;2022-07-03T00:43:17;8.65;;;6.68;;
16593;SDS011;8410;52.532;13.336;2022-07-03T00:45:48;16.67;;;15.23;;
16593;SDS011;8410;52.532;13.336;2022-07-03T00:48:18;11.18;;;9.95;;
16593;SDS011;8410;52.532;13.336;2022-07-03T00:50:48;7.10;;;6.50;;
16593;SDS011;8410;52.532;13.336;2022-07-03T00:53:19;5.22;;;4.60;;
16593;SDS011;8410;52.532;13.336;2022-07-03T00:55:55;12.10;;;10.90;;
16593;SDS011;8410;52.532;13.336;2022-07-03T00:58:27;4.03;;;3.70;;
16593;SDS011;8410;52.532;13.336;2022-07-03T01:00:57;19.15;;;17.42;;
16593;SDS011;8410;52.532;13.336;2022-07-03T01:03:25;10.13;;;9.13;;
16593;SDS011;8410;52.532;13.336;2022-07-03T01:06:01;7.28;;;6.57;;
16593;SDS011;8410;52.532;13.336;2022-07-03T01:08:41;10.82;;;9.80;;
16593;SDS011;8410;52.532;13.336;2022-07-03T01:11:14;4.18;;;3.75;;
16593;SDS011;8410;52.532;13.336;2022-07-03T01:13:57;6.35;;;5.22;;
16593;SDS011;8410;52.532;13.336;2022-07-03T01:16:40;8.60;;;7.82;;
16593;SDS011;8410;52.532;13.336;2022-07-03T01:19:30;6.90;;;6.20;;
16593;SDS011;8410;52.532;13.336;2022-07-03T01:22:20;4.15;;;3.70;;
16593;SDS011;8410;52.532;13.336;2022-07-03T01:25:07;4.35;;;3.30;;
16593;SDS011;8410;52.532;13.336;2022-07-03T01:27:55;4.40;;;4.00;;
16593;SDS011;8410;52.532;13.336;2022-07-03T01:30:30;5.45;;;4.05;;
16593;SDS011;8410;52.532;13.336;2022-07-03T01:33:01;4.20;;;3.58;;
16593;SDS011;8410;52.532;13.336;2022-07-03T01:35:35;5.47;;;4.47;;
16593;SDS011;8410;52.532;13.336;2022-07-03T01:38:06;8.48;;;7.70;;
16593;SDS011;8410;52.532;13.336;2022-07-03T01:40:38;3.92;;;3.58;;
16593;SDS011;8410;52.532;13.336;2022-07-03T01:43:10;4.22;;;3.75;;
16593;SDS011;8410;52.532;13.336;2022-07-03T01:45:41;5.00;;;3.90;;
16593;SDS011;8410;52.532;13.336;2022-07-03T01:48:14;4.00;;;3.60;;
16593;SDS011;8410;52.532;13.336;2022-07-03T01:50:43;3.70;;;3.40;;
16593;SDS011;8410;52.532;13.336;2022-07-03T01:53:16;4.00;;;3.70;;
16593;SDS011;8410;52.532;13.336;2022-07-03T01:55:45;5.43;;;4.93;;
16593;SDS011;8410;52.532;13.336;2022-07-03T01:58:17;5.93;;;5.32;;
16593;SDS011;8410;52.532;13.336;2022-07-03T02:00:45;9.40;;;6.30;;
16593;SDS011;8410;52.532;13.336;2022-07-03T02:03:19;5.20;;;4.53;;
16593;SDS011;8410;52.532;13.336;2022-07-03T02:05:55;6.75;;;5.60;;
16593;SDS011;8410;52.532;13.336;2022-07-03T02:08:43;8.48;;;6.75;;
16593;SDS011;8410;52.532;13.336;2022-07-03T02:11:38;5.82;;;5.22;;
16593;SDS011;8410;52.532;13.336;2022-07-03T02:14:11;5.75;;;4.70;;
16593;SDS011;8410;52.532;13.336;2022-07-03T02:16:43;8.18;;;4.80;;
16593;SDS011;8410;52.532;13.336;2022-07-03T02:19:34;7.38;;;5.63;;
16593;SDS011;8410;52.532;13.336;2022-07-03T02:22:11;8.52;;;6.53;;
16593;SDS011;8410;52.532;13.336;2022-07-03T02:24:41;7.55;;;6.75;;
16593;SDS011;8410;52.532;13.336;2022-07-03T02:27:12;7.93;;;6.17;;
16593;SDS011;8410;52.532;13.336;2022-07-03T02:29:49;5.70;;;4.90;;
16593;SDS011;8410;52.532;13.336;2022-07-03T02:32:23;5.47;;;4.55;;
16593;SDS011;8410;52.532;13.336;2022-07-03T02:34:58;5.18;;;4.78;;
16593;SDS011;8410;52.532;13.336;2022-07-03T02:37:33;5.57;;;4.30;;
16593;SDS011;8410;52.532;13.336;2022-07-03T02:40:10;4.67;;;4.23;;
16593;SDS011;8410;52.532;13.336;2022-07-03T02:42:54;5.43;;;4.50;;
16593;SDS011;8410;52.532;13.336;2022-07-03T02:45:38;4.32;;;3.92;;
16593;SDS011;8410;52.532;13.336;2022-07-03T02:48:16;4.53;;;4.20;;
16593;SDS011;8410;52.532;13.336;2022-07-03T02:50:54;4.38;;;3.97;;
16593;SDS011;8410;52.532;13.336;2022-07-03T02:53:33;4.90;;;3.80;;
16593;SDS011;8410;52.532;13.336;2022-07-03T02:56:13;5.10;;;4.28;;
16593;SDS011;8410;52.532;13.336;2022-07-03T02:58:53;4.25;;;3.75;;
16593;SDS011;8410;52.532;13.336;2022-07-03T03:01:38;3.93;;;3.63;;
16593;SDS011;8410;52.532;13.336;2022-07-03T03:04:19;4.80;;;3.57;;
16593;SDS011;8410;52.532;13.336;2022-07-03T03:06:55;4.30;;;4.00;;
16593;SDS011;8410;52.532;13.336;2022-07-03T03:09:32;4.30;;;3.88;;
16593;SDS011;8410;52.532;13.336;2022-07-03T03:12:09;5.00;;;4.20;;
16593;SDS011;8410;52.532;13.336;2022-07-03T03:14:38;7.07;;;4.23;;
16593;SDS011;8410;52.532;13.336;2022-07-03T03:17:09;4.73;;;3.93;;
16593;SDS011;8410;52.532;13.336;2022-07-03T03:19:45;8.53;;;4.10;;
16593;SDS011;8410;52.532;13.336;2022-07-03T03:22:33;4.18;;;3.85;;
16593;SDS011;8410;52.532;13.336;2022-07-03T03:25:22;5.27;;;3.73;;
16593;SDS011;8410;52.532;13.336;2022-07-03T03:27:51;4.70;;;4.27;;
16593;SDS011;8410;52.532;13.336;2022-07-03T03:30:19;7.17;;;6.47;;
16593;SDS011;8410;52.532;13.336;2022-07-03T03:32:49;4.65;;;4.25;;
16593;SDS011;8410;52.532;13.336;2022-07-03T03:35:16;5.73;;;4.80;;
16593;SDS011;8410;52.532;13.336;2022-07-03T03:37:45;5.80;;;3.90;;
16593;SDS011;8410;52.532;13.336;2022-07-03T03:40:15;4.40;;;4.00;;
16593;SDS011;8410;52.532;13.336;2022-07-03T03:42:44;5.80;;;4.45;;
16593;SDS011;8410;52.532;13.336;2022-07-03T03:45:12;4.35;;;4.05;;
16593;SDS011;8410;52.532;13.336;2022-07-03T03:47:39;4.35;;;3.95;;
16593;SDS011;8410;52.532;13.336;2022-07-03T03:50:09;4.75;;;4.07;;
16593;SDS011;8410;52.532;13.336;2022-07-03T03:52:37;9.90;;;8.93;;
16593;SDS011;8410;52.532;13.336;2022-07-03T03:55:05;3.90;;;3.60;;
16593;SDS011;8410;52.532;13.336;2022-07-03T03:57:35;3.88;;;3.50;;
16593;SDS011;8410;52.532;13.336;2022-07-03T04:00:04;3.83;;;3.53;;
16593;SDS011;8410;52.532;13.336;2022-07-03T04:02:34;5.55;;;3.60;;
16593;SDS011;8410;52.532;13.336;2022-07-03T04:05:01;3.25;;;2.97;;
16593;SDS011;8410;52.532;13.336;2022-07-03T04:07:31;4.00;;;3.70;;
16593;SDS011;8410;52.532;13.336;2022-07-03T04:09:59;4.85;;;3.70;;
16593;SDS011;8410;52.532;13.336;2022-07-03T04:12:27;4.43;;;3.80;;
16593;SDS011;8410;52.532;13.336;2022-07-03T04:14:56;5.22;;;3.70;;
16593;SDS011;8410;52.532;13.336;2022-07-03T04:17:25;5.60;;;4.10;;
16593;SDS011;8410;52.532;13.336;2022-07-03T04:19:53;4.88;;;3.60;;
16593;SDS011;8410;52.532;13.336;2022-07-03T04:22:21;4.35;;;3.95;;
16593;SDS011;8410;52.532;13.336;2022-07-03T04:24:50;5.68;;;3.47;;
16593;SDS011;8410;52.532;13.336;2022-07-03T04:27:18;6.65;;;3.80;;
16593;SDS011;8410;52.532;13.336;2022-07-03T04:30:06;3.67;;;3.30;;
16593;SDS011;8410;52.532;13.336;2022-07-03T04:32:36;3.72;;;3.42;;
16593;SDS011;8410;52.532;13.336;2022-07-03T04:35:05;4.53;;;3.70;;
16593;SDS011;8410;52.532;13.336;2022-07-03T04:37:34;3.88;;;3.17;;
16593;SDS011;8410;52.532;13.336;2022-07-03T04:40:04;3.35;;;3.05;;
16593;SDS011;8410;52.532;13.336;2022-07-03T04:42:34;4.25;;;3.10;;
16593;SDS011;8410;52.532;13.336;2022-07-03T04:45:06;6.22;;;3.10;;
16593;SDS011;8410;52.532;13.336;2022-07-03T04:47:35;5.10;;;3.47;;
16593;SDS011;8410;52.532;13.336;2022-07-03T04:50:03;7.85;;;3.42;;
16593;SDS011;8410;52.532;13.336;2022-07-03T04:52:31;5.75;;;4.65;;
16593;SDS011;8410;52.532;13.336;2022-07-03T04:54:59;3.55;;;3.25;;
16593;SDS011;8410;52.532;13.336;2022-07-03T04:57:30;4.32;;;3.55;;
16593;SDS011;8410;52.532;13.336;2022-07-03T04:59:57;3.83;;;3.53;;
16593;SDS011;8410;52.532;13.336;2022-07-03T05:02:25;4.50;;;4.10;;
16593;SDS011;8410;52.532;13.336;2022-07-03T05:04:53;4.28;;;3.40;;
16593;SDS011;8410;52.532;13.336;2022-07-03T05:07:21;4.10;;;3.70;;
16593;SDS011;8410;52.532;13.336;2022-07-03T05:09:49;4.03;;;3.15;;
16593;SDS011;8410;52.532;13.336;2022-07-03T05:12:17;5.07;;;3.72;;
16593;SDS011;8410;52.532;13.336;2022-07-03T05:14:46;3.85;;;3.33;;
16593;SDS011;8410;52.532;13.336;2022-07-03T05:17:16;5.22;;;4.00;;
16593;SDS011;8410;52.532;13.336;2022-07-03T05:19:44;4.25;;;3.83;;
16593;SDS011;8410;52.532;13.336;2022-07-03T05:22:13;5.25;;;3.40;;
16593;SDS011;8410;52.532;13.336;2022-07-03T05:24:43;4.97;;;3.85;;
16593;SDS011;8410;52.532;13.336;2022-07-03T05:27:11;3.55;;;3.20;;
16593;SDS011;8410;52.532;13.336;2022-07-03T05:29:39;6.88;;;3.40;;
16593;SDS011;8410;52.532;13.336;2022-07-03T05:32:08;5.20;;;3.63;;
16593;SDS011;8410;52.532;13.336;2022-07-03T05:34:36;3.72;;;3.42;;
16593;SDS011;8410;52.532;13.336;2022-07-03T05:37:04;3.15;;;2.85;;
16593;SDS011;8410;52.532;13.336;2022-07-03T05:39:32;3.40;;;3.10;;
16593;SDS011;8410;52.532;13.336;2022-07-03T05:42:00;3.80;;;3.30;;
16593;SDS011;8410;52.532;13.336;2022-07-03T05:44:28;3.33;;;3.10;;
16593;SDS011;8410;52.532;13.336;2022-07-03T05:46:56;3.55;;;3.03;;
16593;SDS011;8410;52.532;13.336;2022-07-03T05:49:25;3.63;;;3.33;;
16593;SDS011;8410;52.532;13.336;2022-07-03T05:51:53;4.80;;;3.17;;
16593;SDS011;8410;52.532;13.336;2022-07-03T05:54:21;3.33;;;3.03;;
16593;SDS011;8410;52.532;13.336;2022-07-03T05:56:48;4.72;;;3.70;;
16593;SDS011;8410;52.532;13.336;2022-07-03T05:59:16;3.80;;;3.45;;
16593;SDS011;8410;52.532;13.336;2022-07-03T06:01:45;3.25;;;3.03;;
16593;SDS011;8410;52.532;13.336;2022-07-03T06:04:13;3.50;;;3.00;;
16593;SDS011;8410;52.532;13.336;2022-07-03T06:06:42;3.13;;;2.75;;
16593;SDS011;8410;52.532;13.336;2022-07-03T06:09:10;2.97;;;2.78;;
16593;SDS011;8410;52.532;13.336;2022-07-03T06:11:42;2.97;;;2.78;;
16593;SDS011;8410;52.532;13.336;2022-07-03T06:14:10;3.08;;;2.78;;
16593;SDS011;8410;52.532;13.336;2022-07-03T06:16:38;2.70;;;2.50;;
16593;SDS011;8410;52.532;13.336;2022-07-03T06:19:06;3.83;;;3.08;;
16593;SDS011;8410;52.532;13.336;2022-07-03T06:21:34;2.92;;;2.17;;
16593;SDS011;8410;52.532;13.336;2022-07-03T06:24:04;3.33;;;3.03;;
16593;SDS011;8410;52.532;13.336;2022-07-03T06:26:33;4.15;;;3.80;;
16593;SDS011;8410;52.532;13.336;2022-07-03T06:29:01;5.57;;;3.42;;
16593;SDS011;8410;52.532;13.336;2022-07-03T06:31:29;3.63;;;2.83;;
16593;SDS011;8410;52.532;13.336;2022-07-03T06:33:57;3.92;;;2.58;;
16593;SDS011;8410;52.532;13.336;2022-07-03T06:36:25;3.10;;;2.80;;
16593;SDS011;8410;52.532;13.336;2022-07-03T06:38:53;3.30;;;3.00;;
16593;SDS011;8410;52.532;13.336;2022-07-03T06:41:22;3.30;;;3.00;;
16593;SDS011;8410;52.532;13.336;2022-07-03T06:43:50;2.70;;;2.50;;
16593;SDS011;8410;52.532;13.336;2022-07-03T06:46:18;3.28;;;2.80;;
16593;SDS011;8410;52.532;13.336;2022-07-03T06:48:46;3.25;;;2.90;;
16593;SDS011;8410;52.532;13.336;2022-07-03T06:51:14;3.17;;;2.97;;
16593;SDS011;8410;52.532;13.336;2022-07-03T06:53:42;2.97;;;2.78;;
16593;SDS011;8410;52.532;13.336;2022-07-03T06:56:10;2.50;;;2.40;;
16593;SDS011;8410;52.532;13.336;2022-07-03T06:58:39;3.70;;;2.42;;
16593;SDS011;8410;52.532;13.336;2022-07-03T07:01:07;2.97;;;2.30;;
16593;SDS011;8410;52.532;13.336;2022-07-03T07:03:35;3.53;;;2.60;;
16593;SDS011;8410;52.532;13.336;2022-07-03T07:06:03;2.78;;;2.58;;
16593;SDS011;8410;52.532;13.336;2022-07-03T07:08:31;2.58;;;2.38;;
16593;SDS011;8410;52.532;13.336;2022-07-03T07:10:58;3.80;;;3.47;;
16593;SDS011;8410;52.532;13.336;2022-07-03T07:13:26;3.00;;;2.70;;
16593;SDS011;8410;52.532;13.336;2022-07-03T07:15:56;2.92;;;2.55;;
16593;SDS011;8410;52.532;13.336;2022-07-03T07:18:23;3.05;;;2.38;;
16593;SDS011;8410;52.532;13.336;2022-07-03T07:20:51;2.50;;;2.30;;
16593;SDS011;8410;52.532;13.336;2022-07-03T07:23:19;4.45;;;2.35;;
16593;SDS011;8410;52.532;13.336;2022-07-03T07:25:47;5.43;;;2.55;;
16593;SDS011;8410;52.532;13.336;2022-07-03T07:28:15;2.63;;;2.42;;
16593;SDS011;8410;52.532;13.336;2022-07-03T07:30:43;3.97;;;2.90;;
16593;SDS011;8410;52.532;13.336;2022-07-03T07:33:12;2.95;;;2.75;;
16593;SDS011;8410;52.532;13.336;2022-07-03T07:35:40;2.65;;;2.42;;
16593;SDS011;8410;52.532;13.336;2022-07-03T07:38:08;2.80;;;2.60;;
16593;SDS011;8410;52.532;13.336;2022-07-03T07:40:36;4.03;;;2.75;;
16593;SDS011;8410;52.532;13.336;2022-07-03T07:43:04;3.85;;;2.70;;
16593;SDS011;8410;52.532;13.336;2022-07-03T07:45:33;3.20;;;2.50;;
16593;SDS011;8410;52.532;13.336;2022-07-03T07:48:01;2.95;;;2.60;;
16593;SDS011;8410;52.532;13.336;2022-07-03T07:50:31;2.53;;;2.10;;
16593;SDS011;8410;52.532;13.336;2022-07-03T07:52:59;2.40;;;2.20;;
16593;SDS011;8410;52.532;13.336;2022-07-03T07:55:27;3.78;;;2.90;;
16593;SDS011;8410;52.532;13.336;2022-07-03T07:57:55;3.88;;;2.85;;
16593;SDS011;8410;52.532;13.336;2022-07-03T08:00:23;2.60;;;2.40;;
16593;SDS011;8410;52.532;13.336;2022-07-03T08:02:51;4.40;;;2.63;;
16593;SDS011;8410;52.532;13.336;2022-07-03T08:05:37;3.40;;;3.03;;
16593;SDS011;8410;52.532;13.336;2022-07-03T08:08:06;2.85;;;2.33;;
16593;SDS011;8410;52.532;13.336;2022-07-03T08:10:37;3.63;;;2.50;;
16593;SDS011;8410;52.532;13.336;2022-07-03T08:13:08;3.55;;;3.20;;
16593;SDS011;8410;52.532;13.336;2022-07-03T08:15:37;2.90;;;2.65;;
16593;SDS011;8410;52.532;13.336;2022-07-03T08:18:05;3.40;;;2.40;;
16593;SDS011;8410;52.532;13.336;2022-07-03T08:20:34;4.38;;;2.30;;
16593;SDS011;8410;52.532;13.336;2022-07-03T08:23:04;2.78;;;2.63;;
16593;SDS011;8410;52.532;13.336;2022-07-03T08:25:33;3.80;;;3.35;;
16593;SDS011;8410;52.532;13.336;2022-07-03T08:28:01;2.75;;;2.55;;
16593;SDS011;8410;52.532;13.336;2022-07-03T08:30:29;2.60;;;2.35;;
16593;SDS011;8410;52.532;13.336;2022-07-03T08:32:57;5.15;;;2.80;;
16593;SDS011;8410;52.532;13.336;2022-07-03T08:35:26;3.85;;;2.80;;
16593;SDS011;8410;52.532;13.336;2022-07-03T08:37:54;2.70;;;2.28;;
16593;SDS011;8410;52.532;13.336;2022-07-03T08:40:24;2.90;;;2.55;;
16593;SDS011;8410;52.532;13.336;2022-07-03T08:42:53;4.25;;;2.40;;
16593;SDS011;8410;52.532;13.336;2022-07-03T08:45:23;3.03;;;2.70;;
16593;SDS011;8410;52.532;13.336;2022-07-03T08:47:53;3.55;;;3.00;;
16593;SDS011;8410;52.532;13.336;2022-07-03T08:50:24;4.70;;;3.42;;
16593;SDS011;8410;52.532;13.336;2022-07-03T08:52:52;4.10;;;2.35;;
16593;SDS011;8410;52.532;13.336;2022-07-03T08:55:20;3.17;;;2.28;;
16593;SDS011;8410;52.532;13.336;2022-07-03T08:57:49;2.50;;;2.30;;
16593;SDS011;8410;52.532;13.336;2022-07-03T09:00:18;3.95;;;2.35;;
16593;SDS011;8410;52.532;13.336;2022-07-03T09:02:47;2.50;;;2.30;;
16593;SDS011;8410;52.532;13.336;2022-07-03T09:05:16;2.58;;;2.38;;
16593;SDS011;8410;52.532;13.336;2022-07-03T09:07:45;3.50;;;3.20;;
16593;SDS011;8410;52.532;13.336;2022-07-03T09:10:16;2.92;;;2.53;;
16593;SDS011;8410;52.532;13.336;2022-07-03T09:12:45;2.85;;;2.40;;
16593;SDS011;8410;52.532;13.336;2022-07-03T09:15:16;2.40;;;2.20;;
16593;SDS011;8410;52.532;13.336;2022-07-03T09:17:55;2.95;;;2.10;;
16593;SDS011;8410;52.532;13.336;2022-07-03T09:20:29;6.18;;;2.47;;
16593;SDS011;8410;52.532;13.336;2022-07-03T09:23:14;3.20;;;2.47;;
16593;SDS011;8410;52.532;13.336;2022-07-03T09:25:52;2.70;;;2.40;;
16593;SDS011;8410;52.532;13.336;2022-07-03T09:28:23;4.45;;;2.50;;
16593;SDS011;8410;52.532;13.336;2022-07-03T09:31:09;3.92;;;3.33;;
16593;SDS011;8410;52.532;13.336;2022-07-03T09:36:37;2.60;;;2.40;;
16593;SDS011;8410;52.532;13.336;2022-07-03T09:39:11;3.08;;;2.67;;
16593;SDS011;8410;52.532;13.336;2022-07-03T09:41:53;2.22;;;2.00;;
16593;SDS011;8410;52.532;13.336;2022-07-03T09:44:32;3.08;;;2.05;;
16593;SDS011;8410;52.532;13.336;2022-07-03T09:47:11;2.83;;;2.30;;
16593;SDS011;8410;52.532;13.336;2022-07-03T09:49:48;2.33;;;2.13;;
16593;SDS011;8410;52.532;13.336;2022-07-03T09:52:31;3.47;;;2.40;;
16593;SDS011;8410;52.532;13.336;2022-07-03T09:55:11;2.22;;;2.03;;
16593;SDS011;8410;52.532;13.336;2022-07-03T09:57:44;2.35;;;2.13;;
16593;SDS011;8410;52.532;13.336;2022-07-03T10:00:25;2.05;;;1.95;;
16593;SDS011;8410;52.532;13.336;2022-07-03T10:03:01;2.42;;;2.20;;
16593;SDS011;8410;52.532;13.336;2022-07-03T10:05:32;2.50;;;2.05;;
16593;SDS011;8410;52.532;13.336;2022-07-03T10:08:02;2.30;;;2.10;;
16593;SDS011;8410;52.532;13.336;2022-07-03T10:10:32;2.38;;;2.03;;
16593;SDS011;8410;52.532;13.336;2022-07-03T10:13:03;1.90;;;1.80;;
16593;SDS011;8410;52.532;13.336;2022-07-03T10:15:33;2.15;;;2.03;;
16593;SDS011;8410;52.532;13.336;2022-07-03T10:18:06;2.33;;;2.05;;
16593;SDS011;8410;52.532;13.336;2022-07-03T10:20:36;2.30;;;2.10;;
16593;SDS011;8410;52.532;13.336;2022-07-03T10:23:08;2.55;;;2.20;;
16593;SDS011;8410;52.532;13.336;2022-07-03T10:25:38;2.33;;;2.13;;
16593;SDS011;8410;52.532;13.336;2022-07-03T10:28:09;2.55;;;2.10;;
16593;SDS011;8410;52.532;13.336;2022-07-03T10:30:40;3.22;;;2.30;;
16593;SDS011;8410;52.532;13.336;2022-07-03T10:33:13;2.40;;;2.20;;
16593;SDS011;8410;52.532;13.336;2022-07-03T10:35:41;2.42;;;2.10;;
16593;SDS011;8410;52.532;13.336;2022-07-03T10:38:18;2.47;;;2.20;;
16593;SDS011;8410;52.532;13.336;2022-07-03T10:41:07;2.10;;;1.92;;
16593;SDS011;8410;52.532;13.336;2022-07-03T10:44:00;2.92;;;2.20;;
16593;SDS011;8410;52.532;13.336;2022-07-03T10:46:46;2.20;;;2.00;;
16593;SDS011;8410;52.532;13.336;2022-07-03T10:49:20;2.30;;;2.10;;
16593;SDS011;8410;52.532;13.336;2022-07-03T10:51:53;3.72;;;1.90;;
16593;SDS011;8410;52.532;13.336;2022-07-03T10:54:24;3.15;;;2.20;;
16593;SDS011;8410;52.532;13.336;2022-07-03T10:57:04;2.28;;;2.08;;
16593;SDS011;8410;52.532;13.336;2022-07-03T11:02:28;6.15;;;5.63;;
16593;SDS011;8410;52.532;13.336;2022-07-03T11:05:08;2.58;;;2.38;;
16593;SDS011;8410;52.532;13.336;2022-07-03T11:10:41;2.15;;;1.95;;
16593;SDS011;8410;52.532;13.336;2022-07-03T11:13:11;3.05;;;2.00;;
16593;SDS011;8410;52.532;13.336;2022-07-03T11:15:43;3.08;;;2.05;;
16593;SDS011;8410;52.532;13.336;2022-07-03T11:18:14;2.10;;;1.90;;
16593;SDS011;8410;52.532;13.336;2022-07-03T11:24:00;8.35;;;3.33;;
16593;SDS011;8410;52.532;13.336;2022-07-03T11:27:16;1.70;;;1.60;;
16593;SDS011;8410;52.532;13.336;2022-07-03T11:29:50;2.08;;;1.88;;
16593;SDS011;8410;52.532;13.336;2022-07-03T11:38:21;3.28;;;1.88;;
16593;SDS011;8410;52.532;13.336;2022-07-03T11:40:53;4.53;;;1.60;;
16593;SDS011;8410;52.532;13.336;2022-07-03T11:43:24;3.00;;;1.83;;
16593;SDS011;8410;52.532;13.336;2022-07-03T11:45:52;1.80;;;1.70;;
16593;SDS011;8410;52.532;13.336;2022-07-03T11:48:22;2.17;;;1.98;;
16593;SDS011;8410;52.532;13.336;2022-07-03T11:50:53;2.40;;;2.20;;
16593;SDS011;8410;52.532;13.336;2022-07-03T11:53:29;3.22;;;2.17;;
16593;SDS011;8410;52.532;13.336;2022-07-03T11:56:00;2.50;;;2.30;;
16593;SDS011;8410;52.532;13.336;2022-07-03T11:58:40;2.10;;;1.92;;
16593;SDS011;8410;52.532;13.336;2022-07-03T12:01:29;2.10;;;1.67;;
16593;SDS011;8410;52.532;13.336;2022-07-03T12:04:04;2.30;;;2.05;;
16593;SDS011;8410;52.532;13.336;2022-07-03T12:06:35;2.65;;;2.13;;
16593;SDS011;8410;52.532;13.336;2022-07-03T12:09:14;2.80;;;2.60;;
16593;SDS011;8410;52.532;13.336;2022-07-03T12:11:54;2.30;;;1.80;;
16593;SDS011;8410;52.532;13.336;2022-07-03T12:17:18;2.80;;;2.58;;
16593;SDS011;8410;52.532;13.336;2022-07-03T12:19:49;1.98;;;1.88;;
16593;SDS011;8410;52.532;13.336;2022-07-03T12:22:23;2.33;;;1.70;;
16593;SDS011;8410;52.532;13.336;2022-07-03T12:24:58;2.00;;;1.90;;
16593;SDS011;8410;52.532;13.336;2022-07-03T12:27:28;2.28;;;2.08;;
16593;SDS011;8410;52.532;13.336;2022-07-03T12:29:56;2.78;;;2.10;;
16593;SDS011;8410;52.532;13.336;2022-07-03T12:32:25;3.35;;;2.10;;
16593;SDS011;8410;52.532;13.336;2022-07-03T12:34:54;2.30;;;2.00;;
16593;SDS011;8410;52.532;13.336;2022-07-03T12:37:30;3.92;;;1.90;;
16593;SDS011;8410;52.532;13.336;2022-07-03T12:40:02;3.38;;;1.77;;
16593;SDS011;8410;52.532;13.336;2022-07-03T12:42:41;2.30;;;1.85;;
16593;SDS011;8410;52.532;13.336;2022-07-03T12:45:11;2.75;;;2.55;;
16593;SDS011;8410;52.532;13.336;2022-07-03T12:47:42;4.53;;;3.40;;
16593;SDS011;8410;52.532;13.336;2022-07-03T12:50:11;3.33;;;2.70;;
16593;SDS011;8410;52.532;13.336;2022-07-03T12:52:50;3.17;;;2.70;;
16593;SDS011;8410;52.532;13.336;2022-07-03T12:55:25;3.97;;;2.95;;
16593;SDS011;8410;52.532;13.336;2022-07-03T12:58:09;2.75;;;2.47;;
16593;SDS011;8410;52.532;13.336;2022-07-03T13:00:55;2.25;;;1.70;;
16593;SDS011;8410;52.532;13.336;2022-07-03T13:03:27;2.42;;;2.22;;
16593;SDS011;8410;52.532;13.336;2022-07-03T13:06:11;2.90;;;1.65;;
16593;SDS011;8410;52.532;13.336;2022-07-03T13:08:48;2.38;;;1.80;;
16593;SDS011;8410;52.532;13.336;2022-07-03T13:11:27;3.47;;;1.67;;
16593;SDS011;8410;52.532;13.336;2022-07-03T13:14:05;2.00;;;1.83;;
16593;SDS011;8410;52.532;13.336;2022-07-03T13:16:40;3.83;;;1.75;;
16593;SDS011;8410;52.532;13.336;2022-07-03T13:19:11;1.70;;;1.45;;
16593;SDS011;8410;52.532;13.336;2022-07-03T13:21:41;1.50;;;1.40;;
16593;SDS011;8410;52.532;13.336;2022-07-03T13:24:10;2.05;;;1.85;;
16593;SDS011;8410;52.532;13.336;2022-07-03T13:26:41;2.72;;;1.92;;
16593;SDS011;8410;52.532;13.336;2022-07-03T13:29:14;1.85;;;1.60;;
16593;SDS011;8410;52.532;13.336;2022-07-03T13:31:43;2.17;;;1.58;;
16593;SDS011;8410;52.532;13.336;2022-07-03T13:34:11;2.88;;;1.73;;
16593;SDS011;8410;52.532;13.336;2022-07-03T13:36:38;2.95;;;1.70;;
16593;SDS011;8410;52.532;13.336;2022-07-03T13:39:06;4.75;;;1.73;;
16593;SDS011;8410;52.532;13.336;2022-07-03T13:41:35;2.72;;;1.70;;
16593;SDS011;8410;52.532;13.336;2022-07-03T13:44:05;3.42;;;1.75;;
16593;SDS011;8410;52.532;13.336;2022-07-03T13:46:33;2.00;;;1.80;;
16593;SDS011;8410;52.532;13.336;2022-07-03T13:49:01;1.83;;;1.67;;
16593;SDS011;8410;52.532;13.336;2022-07-03T13:51:29;1.60;;;1.50;;
16593;SDS011;8410;52.532;13.336;2022-07-03T13:53:57;2.10;;;1.67;;
16593;SDS011;8410;52.532;13.336;2022-07-03T13:56:24;2.30;;;2.05;;
16593;SDS011;8410;52.532;13.336;2022-07-03T13:58:52;3.08;;;1.90;;
16593;SDS011;8410;52.532;13.336;2022-07-03T14:01:22;3.40;;;1.88;;
16593;SDS011;8410;52.532;13.336;2022-07-03T14:03:50;2.20;;;1.83;;
16593;SDS011;8410;52.532;13.336;2022-07-03T14:06:18;1.98;;;1.83;;
16593;SDS011;8410;52.532;13.336;2022-07-03T14:08:45;4.13;;;1.77;;
16593;SDS011;8410;52.532;13.336;2022-07-03T14:11:13;2.85;;;1.75;;
16593;SDS011;8410;52.532;13.336;2022-07-03T14:13:41;2.50;;;1.80;;
16593;SDS011;8410;52.532;13.336;2022-07-03T14:16:10;1.60;;;1.50;;
16593;SDS011;8410;52.532;13.336;2022-07-03T14:18:40;2.15;;;1.85;;
16593;SDS011;8410;52.532;13.336;2022-07-03T14:21:08;3.20;;;1.88;;
16593;SDS011;8410;52.532;13.336;2022-07-03T14:23:36;2.55;;;1.70;;
16593;SDS011;8410;52.532;13.336;2022-07-03T14:26:04;2.80;;;2.03;;
16593;SDS011;8410;52.532;13.336;2022-07-03T14:28:32;2.25;;;2.05;;
16593;SDS011;8410;52.532;13.336;2022-07-03T14:31:17;2.92;;;2.30;;
16593;SDS011;8410;52.532;13.336;2022-07-03T14:34:04;4.10;;;2.15;;
16593;SDS011;8410;52.532;13.336;2022-07-03T14:36:32;2.28;;;2.17;;
16593;SDS011;8410;52.532;13.336;2022-07-03T14:39:10;4.10;;;1.90;;
16593;SDS011;8410;52.532;13.336;2022-07-03T14:41:40;2.38;;;1.50;;
16593;SDS011;8410;52.532;13.336;2022-07-03T14:44:08;3.95;;;2.88;;
16593;SDS011;8410;52.532;13.336;2022-07-03T14:46:36;2.10;;;1.80;;
16593;SDS011;8410;52.532;13.336;2022-07-03T14:49:05;3.85;;;2.13;;
16593;SDS011;8410;52.532;13.336;2022-07-03T14:51:33;2.85;;;2.00;;
16593;SDS011;8410;52.532;13.336;2022-07-03T14:54:01;2.75;;;2.22;;
16593;SDS011;8410;52.532;13.336;2022-07-03T14:56:29;2.72;;;2.03;;
16593;SDS011;8410;52.532;13.336;2022-07-03T14:58:57;2.17;;;1.85;;
16593;SDS011;8410;52.532;13.336;2022-07-03T15:01:34;1.80;;;1.70;;
16593;SDS011;8410;52.532;13.336;2022-07-03T15:04:09;3.03;;;1.90;;
16593;SDS011;8410;52.532;13.336;2022-07-03T15:06:47;2.40;;;1.67;;
16593;SDS011;8410;52.532;13.336;2022-07-03T15:09:16;2.00;;;1.88;;
16593;SDS011;8410;52.532;13.336;2022-07-03T15:11:53;2.10;;;1.88;;
16593;SDS011;8410;52.532;13.336;2022-07-03T15:14:42;2.45;;;1.77;;
16593;SDS011;8410;52.532;13.336;2022-07-03T15:17:11;3.45;;;1.98;;
16593;SDS011;8410;52.532;13.336;2022-07-03T15:19:41;3.22;;;1.77;;
16593;SDS011;8410;52.532;13.336;2022-07-03T15:22:15;2.53;;;1.90;;
16593;SDS011;8410;52.532;13.336;2022-07-03T15:24:45;3.15;;;2.25;;
16593;SDS011;8410;52.532;13.336;2022-07-03T15:27:17;2.10;;;1.95;;
16593;SDS011;8410;52.532;13.336;2022-07-03T15:29:47;4.40;;;4.05;;
16593;SDS011;8410;52.532;13.336;2022-07-03T15:32:17;3.58;;;1.70;;
16593;SDS011;8410;52.532;13.336;2022-07-03T15:34:47;2.13;;;1.88;;
16593;SDS011;8410;52.532;13.336;2022-07-03T15:37:18;1.92;;;1.70;;